Clayton Village, Mississippi
Current Conditions -  °F | °C
As of 12:15 PM on Thursday 29 Jan 2015 (Local Time) from KSTF Reporting Station
Broken Clouds Broken Clouds  
Wind Chill: 64°   Ceiling: 11000
Heat Index: 64°   Visibility: 10mi
Dew Point: 48°   Wind: 10mph
Humidity: 56%   Direction: 230°SW
Pressure: 30.12"   Gusts: 18mph
Location:  33.4256°N, 88.8438°W
Report Text: KSTF 291815Z AUTO 23009G16KT 10SM BKN110 18/09 A3012 RMK AO2
Loading
Personal Weather Stations






























Interactive Weather Map New forecast layout! Learn more

10-Day Weather Forecast

Advertisements
Track Severe Weather on mobile